Aikoumaru No.8 — JD3288 — position and weather

sailwx.info

Track history (hours):
 
Tides and Currents Weather Stations Pressure Air Temp Water Temp Dewpoint Dewpoint Depression Visibility Wind Speed Wind Dir Waves Ship Positions

Aikoumaru No.8

Last reported at 2017-Jul-23 05:55 UTC. Time now 2017-Jul-23 12:43 UTC.
Position N 34°02' E 135°02'.

Length 74 m; draft 5 m.

Type: Cargo ship. MMSI: 431003153.

Date/timePositionNaut miles runAvg speedWind from/ knotsBaromVisibWave heightAir tempDewpointWater temp
2017-Jul-23 05:55N 34°02' E 135°02'510.9
2017-Jul-23 05:30N 34°07' E 135°03'611.2
2017-Jul-23 05:00N 34°13' E 135°03'712.0
2017-Jul-23 04:25N 34°20' E 135°05'612.1
2017-Jul-23 03:55N 34°24' E 135°09'511.8
2017-Jul-23 03:30N 34°28' E 135°13'811.3
2017-Jul-23 02:46N 34°34' E 135°20'6 0.3
2017-Jul-22 08:46N 34°34' E 135°27'0 0.3
2017-Jul-22 07:21N 34°34' E 135°27'0 0.0
2017-Jul-22 02:27N 34°34' E 135°27'0 0.0
2017-Jul-22 00:05N 34°34' E 135°27'0 4.1
2017-Jul-21 23:59N 34°35' E 135°27'1010.2
2017-Jul-21 22:59N 34°31' E 135°15'613.0
2017-Jul-21 22:30N 34°26' E 135°10'813.2
2017-Jul-21 21:54N 34°19' E 135°05'411.5
2017-Jul-21 21:30N 34°15' E 135°04'2 4.2
2017-Jul-21 20:58N 34°15' E 135°07'0 0.0
2017-Jul-21 20:28N 34°15' E 135°07'0 0.0
2017-Jul-21 19:58N 34°15' E 135°07'0 0.0
2017-Jul-21 19:28N 34°15' E 135°07'0 0.0
2017-Jul-21 18:58N 34°15' E 135°07'0 0.0
2017-Jul-21 18:28N 34°15' E 135°07'0 0.0
2017-Jul-21 17:58N 34°15' E 135°07'0 0.0
2017-Jul-21 17:28N 34°15' E 135°07'0 0.0
2017-Jul-21 16:58N 34°15' E 135°07'0 0.0
2017-Jul-21 16:28N 34°15' E 135°07'0 0.0
2017-Jul-21 15:58N 34°15' E 135°07'0 0.0
2017-Jul-21 15:28N 34°15' E 135°07'0 0.0
2017-Jul-21 14:58N 34°15' E 135°07'0 0.0
2017-Jul-21 14:28N 34°15' E 135°07'0 0.0
2017-Jul-21 13:58N 34°15' E 135°07'0 0.0
2017-Jul-21 13:28N 34°15' E 135°07'0 0.0
2017-Jul-21 12:58N 34°15' E 135°07'0 0.0
2017-Jul-21 12:22N 34°15' E 135°07'0 0.0
2017-Jul-21 11:58N 34°15' E 135°07'0 0.0
2017-Jul-21 11:28N 34°15' E 135°07'0 0.0
2017-Jul-21 10:58N 34°15' E 135°07'0 0.0
2017-Jul-21 10:28N 34°15' E 135°07'0 0.0
2017-Jul-21 09:58N 34°15' E 135°07'0 0.1
2017-Jul-21 08:06N 34°15' E 135°07'0 3.8
2017-Jul-21 08:01N 34°14' E 135°07'8 7.6
2017-Jul-21 06:57N 34°22' E 135°07'511.6
2017-Jul-21 06:29N 34°27' E 135°11'612.6
2017-Jul-21 06:00N 34°31' E 135°16'811.8
2017-Jul-21 05:20N 34°36' E 135°23'3 9.5
2017-Jul-21 05:00N 34°35' E 135°27'1 0.5
2017-Jul-21 03:31N 34°34' E 135°27'0 0.0
2017-Jul-21 03:07N 34°34' E 135°27'0 0.0
2017-Jul-21 02:43N 34°34' E 135°27'0 0.0
2017-Jul-21 01:01N 34°34' E 135°27'0 0.0
2017-Jul-21 00:55N 34°34' E 135°27'0 0.0
2017-Jul-21 00:25N 34°34' E 135°27'0 0.0
2017-Jul-20 23:55N 34°34' E 135°27'0 0.5
2017-Jul-20 23:27N 34°35' E 135°27'1 0.4
2017-Jul-20 20:42N 34°35' E 135°28'0 0.3
2017-Jul-20 20:30N 34°35' E 135°28'0 0.0
2017-Jul-20 20:00N 34°35' E 135°28'0 0.0
2017-Jul-20 19:00N 34°35' E 135°28'0 0.0
2017-Jul-20 10:42N 34°35' E 135°28'0 0.0
2017-Jul-20 10:06N 34°35' E 135°28'0 0.1
2017-Jul-20 10:00N 34°35' E 135°28'0 0.0
2017-Jul-20 09:24N 34°35' E 135°28'0 0.0
2017-Jul-20 09:00N 34°35' E 135°28'0 0.0
2017-Jul-20 08:30N 34°35' E 135°28'0 0.0
2017-Jul-20 08:00N 34°35' E 135°28'0 0.1
2017-Jul-20 07:24N 34°35' E 135°28'0 0.0
2017-Jul-20 06:12N 34°35' E 135°28'0 0.0
2017-Jul-20 04:54N 34°35' E 135°28'0 0.1
2017-Jul-20 00:04N 34°35' E 135°27'1 6.2
2017-Jul-19 23:57N 34°35' E 135°27'4 9.7
2017-Jul-19 23:30N 34°35' E 135°21'611.5
2017-Jul-19 23:00N 34°31' E 135°17'611.5
2017-Jul-19 22:30N 34°27' E 135°12'711.7
2017-Jul-19 21:52N 34°21' E 135°06'711.4
2017-Jul-19 21:16N 34°15' E 135°03'312.6
2017-Jul-19 21:00N 34°12' E 135°03'612.2
2017-Jul-19 20:30N 34°05' E 135°03'  
2017-Jul-15 13:32N 34°51' E 139°48'012.6
2017-Jul-15 13:30N 34°51' E 139°48'24010.0
2017-Jul-14 13:24N 34°03' E 135°03'410.5
2017-Jul-14 13:00N 34°07' E 135°03'510.5
2017-Jul-14 12:29N 34°12' E 135°04'3 7.2
2017-Jul-14 12:01N 34°15' E 135°07'0 0.1
2017-Jul-14 11:30N 34°15' E 135°07'0 0.0
2017-Jul-14 11:00N 34°15' E 135°07'0 0.0
2017-Jul-14 10:30N 34°15' E 135°07'0 0.0
2017-Jul-14 10:00N 34°15' E 135°07'0 0.0
2017-Jul-14 09:30N 34°15' E 135°07'0 0.0
2017-Jul-14 09:00N 34°15' E 135°07'0 0.0
2017-Jul-14 08:30N 34°15' E 135°07'0 0.0
2017-Jul-14 08:00N 34°15' E 135°07'0 0.0
2017-Jul-14 07:30N 34°15' E 135°07'0 0.0
2017-Jul-14 07:00N 34°15' E 135°07'0 0.0
2017-Jul-14 06:30N 34°15' E 135°07'0 0.0
2017-Jul-14 06:00N 34°15' E 135°07'0 0.0
2017-Jul-14 05:30N 34°15' E 135°07'0 0.0
2017-Jul-14 05:00N 34°15' E 135°07'0 0.0
2017-Jul-14 04:03N 34°15' E 135°07'0 0.0
2017-Jul-14 04:01N 34°15' E 135°07'1 1.9
2017-Jul-14 03:30N 34°15' E 135°06'0 0.0
2017-Jul-14 02:55N 34°15' E 135°06'0 0.0
2017-Jul-14 02:25N 34°15' E 135°06'0 0.1
2017-Jul-14 01:59N 34°15' E 135°06'0 0.0
2017-Jul-14 01:29N 34°15' E 135°06'0 0.0
2017-Jul-14 00:59N 34°15' E 135°06'0 0.0
2017-Jul-14 00:29N 34°15' E 135°06'0 0.0
2017-Jul-13 23:59N 34°15' E 135°06'0 0.0
2017-Jul-13 23:28N 34°15' E 135°06'0 0.0
2017-Jul-13 22:59N 34°15' E 135°06'0 0.0
2017-Jul-13 22:29N 34°15' E 135°06'3 6.2
2017-Jul-13 22:00N 34°13' E 135°09'4 8.3
2017-Jul-13 21:30N 34°10' E 135°05'  
Track history (hours):
 
Tides and Currents Weather Stations Pressure Air Temp Water Temp Dewpoint Dewpoint Depression Visibility Wind Speed Wind Dir Waves Ship Positions

Aikoumaru No.8

Last reported at 2017-Jul-23 05:55 UTC. Time now 2017-Jul-23 12:43 UTC.
Position N 34°02' E 135°02'.

Length 74 m; draft 5 m.

Type: Cargo ship. MMSI: 431003153.

Date/timePositionNaut miles runAvg speedWind from/ knotsBaromVisibWave heightAir tempDewpointWater temp
2017-Jul-23 05:55N 34°02' E 135°02'510.9
2017-Jul-23 05:30N 34°07' E 135°03'611.2
2017-Jul-23 05:00N 34°13' E 135°03'712.0
2017-Jul-23 04:25N 34°20' E 135°05'612.1
2017-Jul-23 03:55N 34°24' E 135°09'511.8
2017-Jul-23 03:30N 34°28' E 135°13'811.3
2017-Jul-23 02:46N 34°34' E 135°20'6 0.3
2017-Jul-22 08:46N 34°34' E 135°27'0 0.3
2017-Jul-22 07:21N 34°34' E 135°27'0 0.0
2017-Jul-22 02:27N 34°34' E 135°27'0 0.0
2017-Jul-22 00:05N 34°34' E 135°27'0 4.1
2017-Jul-21 23:59N 34°35' E 135°27'1010.2
2017-Jul-21 22:59N 34°31' E 135°15'613.0
2017-Jul-21 22:30N 34°26' E 135°10'813.2
2017-Jul-21 21:54N 34°19' E 135°05'411.5
2017-Jul-21 21:30N 34°15' E 135°04'2 4.2
2017-Jul-21 20:58N 34°15' E 135°07'0 0.0
2017-Jul-21 20:28N 34°15' E 135°07'0 0.0
2017-Jul-21 19:58N 34°15' E 135°07'0 0.0
2017-Jul-21 19:28N 34°15' E 135°07'0 0.0
2017-Jul-21 18:58N 34°15' E 135°07'0 0.0
2017-Jul-21 18:28N 34°15' E 135°07'0 0.0
2017-Jul-21 17:58N 34°15' E 135°07'0 0.0
2017-Jul-21 17:28N 34°15' E 135°07'0 0.0
2017-Jul-21 16:58N 34°15' E 135°07'0 0.0
2017-Jul-21 16:28N 34°15' E 135°07'0 0.0
2017-Jul-21 15:58N 34°15' E 135°07'0 0.0
2017-Jul-21 15:28N 34°15' E 135°07'0 0.0
2017-Jul-21 14:58N 34°15' E 135°07'0 0.0
2017-Jul-21 14:28N 34°15' E 135°07'0 0.0
2017-Jul-21 13:58N 34°15' E 135°07'0 0.0
2017-Jul-21 13:28N 34°15' E 135°07'0 0.0
2017-Jul-21 12:58N 34°15' E 135°07'0 0.0
2017-Jul-21 12:22N 34°15' E 135°07'0 0.0
2017-Jul-21 11:58N 34°15' E 135°07'0 0.0
2017-Jul-21 11:28N 34°15' E 135°07'0 0.0
2017-Jul-21 10:58N 34°15' E 135°07'0 0.0
2017-Jul-21 10:28N 34°15' E 135°07'0 0.0
2017-Jul-21 09:58N 34°15' E 135°07'0 0.1
2017-Jul-21 08:06N 34°15' E 135°07'0 3.8
2017-Jul-21 08:01N 34°14' E 135°07'8 7.6
2017-Jul-21 06:57N 34°22' E 135°07'511.6
2017-Jul-21 06:29N 34°27' E 135°11'612.6
2017-Jul-21 06:00N 34°31' E 135°16'811.8
2017-Jul-21 05:20N 34°36' E 135°23'3 9.5
2017-Jul-21 05:00N 34°35' E 135°27'1 0.5
2017-Jul-21 03:31N 34°34' E 135°27'0 0.0
2017-Jul-21 03:07N 34°34' E 135°27'0 0.0
2017-Jul-21 02:43N 34°34' E 135°27'0 0.0
2017-Jul-21 01:01N 34°34' E 135°27'0 0.0
2017-Jul-21 00:55N 34°34' E 135°27'0 0.0
2017-Jul-21 00:25N 34°34' E 135°27'0 0.0
2017-Jul-20 23:55N 34°34' E 135°27'0 0.5
2017-Jul-20 23:27N 34°35' E 135°27'1 0.4
2017-Jul-20 20:42N 34°35' E 135°28'0 0.3
2017-Jul-20 20:30N 34°35' E 135°28'0 0.0
2017-Jul-20 20:00N 34°35' E 135°28'0 0.0
2017-Jul-20 19:00N 34°35' E 135°28'0 0.0
2017-Jul-20 10:42N 34°35' E 135°28'0 0.0
2017-Jul-20 10:06N 34°35' E 135°28'0 0.1
2017-Jul-20 10:00N 34°35' E 135°28'0 0.0
2017-Jul-20 09:24N 34°35' E 135°28'0 0.0
2017-Jul-20 09:00N 34°35' E 135°28'0 0.0
2017-Jul-20 08:30N 34°35' E 135°28'0 0.0
2017-Jul-20 08:00N 34°35' E 135°28'0 0.1
2017-Jul-20 07:24N 34°35' E 135°28'0 0.0
2017-Jul-20 06:12N 34°35' E 135°28'0 0.0
2017-Jul-20 04:54N 34°35' E 135°28'0 0.1
2017-Jul-20 00:04N 34°35' E 135°27'1 6.2
2017-Jul-19 23:57N 34°35' E 135°27'4 9.7
2017-Jul-19 23:30N 34°35' E 135°21'611.5
2017-Jul-19 23:00N 34°31' E 135°17'611.5
2017-Jul-19 22:30N 34°27' E 135°12'711.7
2017-Jul-19 21:52N 34°21' E 135°06'711.4
2017-Jul-19 21:16N 34°15' E 135°03'312.6
2017-Jul-19 21:00N 34°12' E 135°03'612.2
2017-Jul-19 20:30N 34°05' E 135°03'  
2017-Jul-15 13:32N 34°51' E 139°48'012.6
2017-Jul-15 13:30N 34°51' E 139°48'24010.0
2017-Jul-14 13:24N 34°03' E 135°03'410.5
2017-Jul-14 13:00N 34°07' E 135°03'510.5
2017-Jul-14 12:29N 34°12' E 135°04'3 7.2
2017-Jul-14 12:01N 34°15' E 135°07'0 0.1
2017-Jul-14 11:30N 34°15' E 135°07'0 0.0
2017-Jul-14 11:00N 34°15' E 135°07'0 0.0
2017-Jul-14 10:30N 34°15' E 135°07'0 0.0
2017-Jul-14 10:00N 34°15' E 135°07'0 0.0
2017-Jul-14 09:30N 34°15' E 135°07'0 0.0
2017-Jul-14 09:00N 34°15' E 135°07'0 0.0
2017-Jul-14 08:30N 34°15' E 135°07'0 0.0
2017-Jul-14 08:00N 34°15' E 135°07'0 0.0
2017-Jul-14 07:30N 34°15' E 135°07'0 0.0
2017-Jul-14 07:00N 34°15' E 135°07'0 0.0
2017-Jul-14 06:30N 34°15' E 135°07'0 0.0
2017-Jul-14 06:00N 34°15' E 135°07'0 0.0
2017-Jul-14 05:30N 34°15' E 135°07'0 0.0
2017-Jul-14 05:00N 34°15' E 135°07'0 0.0
2017-Jul-14 04:03N 34°15' E 135°07'0 0.0
2017-Jul-14 04:01N 34°15' E 135°07'1 1.9
2017-Jul-14 03:30N 34°15' E 135°06'0 0.0
2017-Jul-14 02:55N 34°15' E 135°06'0 0.0
2017-Jul-14 02:25N 34°15' E 135°06'0 0.1
2017-Jul-14 01:59N 34°15' E 135°06'0 0.0
2017-Jul-14 01:29N 34°15' E 135°06'0 0.0
2017-Jul-14 00:59N 34°15' E 135°06'0 0.0
2017-Jul-14 00:29N 34°15' E 135°06'0 0.0
2017-Jul-13 23:59N 34°15' E 135°06'0 0.0
2017-Jul-13 23:28N 34°15' E 135°06'0 0.0
2017-Jul-13 22:59N 34°15' E 135°06'0 0.0
2017-Jul-13 22:29N 34°15' E 135°06'3 6.2
2017-Jul-13 22:00N 34°13' E 135°09'4 8.3
2017-Jul-13 21:30N 34°10' E 135°05'  

Dump ship's entire track history